Time;durP1;ratioP1;P1;durP2;ratioP2;P2;SDS_P1;SDS_P2;PMS_P1;PMS_P2;Temp;Humidity;BMP_temperature;BMP_pressure;BME280_temperature;BME280_humidity;BME280_pressure;Samples;Min_cycle;Max_cycle;Signal;HPM_P1;HPM_P2
2022/08/30 00:03:19;;;;;;;;;2.67;2.33;;;;;24.51;36.83;101273.69;5099649;27;45328;-68
2022/08/30 00:05:45;;;;;;;;;4.33;2.00;;;;;24.52;37.44;101274.56;5097329;27;45714;-72
2022/08/30 00:08:12;;;;;;;;;3.33;2.00;;;;;24.71;38.36;101283.44;5097027;27;45706;-70
2022/08/30 00:10:40;;;;;;;;;5.00;2.33;;;;;24.75;37.29;101293.06;5095842;27;45558;-74
2022/08/30 00:13:11;;;;;;;;;3.00;2.00;;;;;24.65;36.86;101269.47;5095122;27;45536;-69
2022/08/30 00:15:37;;;;;;;;;3.33;2.67;;;;;24.57;37.10;101267.16;5094820;27;45666;-71
2022/08/30 00:18:03;;;;;;;;;2.67;2.00;;;;;24.76;36.96;101307.31;5094634;27;45646;-70
2022/08/30 00:20:31;;;;;;;;;3.00;3.00;;;;;24.74;36.75;101311.88;5096018;27;45369;-74
2022/08/30 00:22:57;;;;;;;;;5.00;3.00;;;;;24.67;36.42;101292.56;5096068;27;45688;-76
2022/08/30 00:25:23;;;;;;;;;2.33;2.00;;;;;24.73;36.32;101289.59;5094500;27;46986;-79
2022/08/30 00:27:49;;;;;;;;;2.00;2.00;;;;;24.59;36.12;101253.72;5096511;27;45289;-79
2022/08/30 00:30:16;;;;;;;;;2.00;2.00;;;;;24.59;36.61;101259.94;5096343;27;45255;-80
2022/08/30 00:32:42;;;;;;;;;5.00;3.00;;;;;24.49;35.76;101253.28;5094517;27;45396;-80
2022/08/30 00:35:11;;;;;;;;;4.00;3.00;;;;;24.52;36.15;101262.03;5097534;27;45613;-76
2022/08/30 00:37:36;;;;;;;;;3.00;3.00;;;;;24.58;36.56;101295.66;5099424;27;45416;-69
2022/08/30 00:40:04;;;;;;;;;3.00;2.33;;;;;24.57;36.23;101293.09;5096449;27;45668;-78
2022/08/30 00:42:31;;;;;;;;;3.00;3.00;;;;;23.93;36.32;101188.06;5093959;27;45420;-79
2022/08/30 00:44:58;;;;;;;;;4.33;3.33;;;;;23.65;36.28;101132.28;5099243;27;46699;-82
2022/08/30 00:47:23;;;;;;;;;3.00;3.00;;;;;23.93;36.06;101193.44;5095765;27;45715;-79
2022/08/30 00:49:52;;;;;;;;;3.67;2.00;;;;;24.46;36.40;101275.69;5098892;27;45404;-76
2022/08/30 00:52:21;;;;;;;;;5.33;3.67;;;;;23.90;36.44;101198.94;5098779;27;45434;-73
2022/08/30 00:54:48;;;;;;;;;3.33;3.33;;;;;24.22;36.51;101245.56;5101918;27;45317;-79
2022/08/30 00:57:14;;;;;;;;;3.00;2.00;;;;;24.34;36.58;101263.75;5098954;27;45833;-82
2022/08/30 00:59:49;;;;;;;;;3.00;3.00;;;;;24.18;36.48;101238.66;5087266;27;45726;-81
2022/08/30 01:02:19;;;;;;;;;2.33;2.33;;;;;24.33;36.39;101269.16;5080615;27;45426;-79
2022/08/30 01:04:56;;;;;;;;;1.33;1.33;;;;;24.41;36.62;101279.50;5093387;27;45737;-74
2022/08/30 01:07:22;;;;;;;;;3.00;2.33;;;;;24.41;36.53;101277.69;5081777;27;45455;-77
2022/08/30 01:09:48;;;;;;;;;2.33;2.33;;;;;24.41;36.72;101285.72;5088863;27;45523;-77
2022/08/30 01:12:14;;;;;;;;;1.00;1.00;;;;;24.16;36.80;101245.88;5074432;27;45562;-80
2022/08/30 01:14:40;;;;;;;;;3.00;2.00;;;;;23.97;36.86;101229.81;5088780;27;45465;-79
2022/08/30 01:17:08;;;;;;;;;4.00;2.00;;;;;24.39;36.57;101292.09;5094791;27;45892;-77
2022/08/30 01:19:45;;;;;;;;;2.67;2.67;;;;;24.36;36.77;101289.56;5094398;27;45448;-72
2022/08/30 01:22:23;;;;;;;;;2.67;2.00;;;;;24.26;36.73;101275.75;5094465;27;45416;-77
2022/08/30 01:24:51;;;;;;;;;2.33;2.33;;;;;24.34;36.76;101297.66;5094533;27;46297;-70
2022/08/30 01:27:18;;;;;;;;;4.00;2.00;;;;;24.31;37.00;101287.97;5095135;27;45609;-68
2022/08/30 01:29:44;;;;;;;;;3.00;3.00;;;;;23.92;36.68;101234.50;5097572;27;45383;-67
2022/08/30 01:32:19;;;;;;;;;5.67;3.00;;;;;24.24;37.31;101297.22;5097986;27;45800;-67
2022/08/30 01:34:48;;;;;;;;;3.33;3.00;;;;;24.22;36.96;101314.31;5096412;27;45907;-67
2022/08/30 01:37:21;;;;;;;;;3.67;1.00;;;;;24.17;37.09;101313.66;5091916;27;45532;-68
2022/08/30 01:39:50;;;;;;;;;3.00;3.00;;;;;24.16;37.26;101309.25;5089270;27;45531;-69
2022/08/30 01:42:17;;;;;;;;;3.00;3.00;;;;;23.83;37.21;101259.00;5098279;27;45594;-69
2022/08/30 01:44:47;;;;;;;;;4.00;2.67;;;;;24.21;37.14;101317.94;5094187;27;45550;-69
2022/08/30 01:47:13;;;;;;;;;3.00;3.00;;;;;24.15;36.97;101320.88;5096925;27;45423;-68
2022/08/30 01:49:40;;;;;;;;;3.50;3.00;;;;;23.91;37.18;101286.25;5097955;27;45380;-67
2022/08/30 01:52:07;;;;;;;;;5.00;4.00;;;;;23.96;36.96;101302.97;5099699;27;45448;-67
2022/08/30 01:54:35;;;;;;;;;3.33;3.33;;;;;24.08;37.06;101333.66;5101404;27;46587;-67
2022/08/30 01:57:02;;;;;;;;;4.00;4.00;;;;;24.01;37.33;101333.06;5102467;27;45551;-67
2022/08/30 01:59:27;;;;;;;;;3.33;3.33;;;;;23.61;37.62;101267.06;5106974;27;45356;-69
2022/08/30 02:01:54;;;;;;;;;3.00;3.00;;;;;23.49;37.59;101245.28;5103428;27;45295;-68
2022/08/30 02:04:20;;;;;;;;;3.00;2.00;;;;;23.90;37.74;101316.63;5099658;27;46309;-68
2022/08/30 02:06:46;;;;;;;;;6.00;3.00;;;;;23.89;39.33;101310.41;5096286;27;45416;-69
2022/08/30 02:09:12;;;;;;;;;6.00;4.00;;;;;23.63;40.49;101300.84;5097455;27;45388;-68
2022/08/30 02:11:38;;;;;;;;;6.67;5.00;;;;;23.54;40.43;101290.53;5091786;27;45951;-67
2022/08/30 02:14:08;;;;;;;;;5.33;3.00;;;;;23.43;40.07;101299.00;5088501;27;46134;-69
2022/08/30 02:16:33;;;;;;;;;4.33;3.00;;;;;23.41;39.65;101283.97;5097473;27;45392;-68
2022/08/30 02:18:59;;;;;;;;;3.33;3.00;;;;;23.63;38.86;101311.53;5097407;27;45362;-68
2022/08/30 02:21:26;;;;;;;;;6.00;4.67;;;;;23.66;39.07;101314.06;5100125;27;45312;-69
2022/08/30 02:23:52;;;;;;;;;3.00;3.00;;;;;23.61;38.73;101302.72;5098188;27;45941;-70
2022/08/30 02:26:19;;;;;;;;;4.00;3.00;;;;;23.68;38.49;101314.88;5097594;27;45532;-68
2022/08/30 02:28:44;;;;;;;;;2.00;2.00;;;;;23.71;38.18;101312.06;5095695;27;45363;-68
2022/08/30 02:31:11;;;;;;;;;2.00;1.00;;;;;23.75;38.14;101320.84;5092207;27;45587;-68
2022/08/30 02:33:40;;;;;;;;;2.33;2.00;;;;;23.63;38.26;101303.50;5097024;27;45418;-68
2022/08/30 02:36:07;;;;;;;;;4.00;4.00;;;;;23.73;37.96;101322.69;5097127;27;45417;-68
2022/08/30 02:38:34;;;;;;;;;3.00;2.00;;;;;23.73;37.89;101321.81;5093653;27;45472;-68
2022/08/30 02:41:05;;;;;;;;;4.00;3.67;;;;;23.75;38.31;101318.16;5089903;27;45219;-69
2022/08/30 02:43:31;;;;;;;;;3.33;2.00;;;;;23.66;38.17;101299.84;5101110;27;45811;-67
2022/08/30 02:45:57;;;;;;;;;2.33;2.33;;;;;23.72;38.33;101312.91;5099342;27;45608;-67
2022/08/30 02:48:23;;;;;;;;;2.67;2.67;;;;;23.63;38.03;101302.63;5097376;27;46068;-68
2022/08/30 02:50:51;;;;;;;;;0.00;0.00;;;;;23.69;37.97;101313.06;5097028;27;45437;-67
2022/08/30 02:53:19;;;;;;;;;2.67;2.67;;;;;23.55;38.47;101288.72;5096904;27;45700;-70
2022/08/30 02:55:46;;;;;;;;;2.67;2.67;;;;;23.73;38.45;101319.13;5097814;27;45360;-75
2022/08/30 02:58:11;;;;;;;;;2.00;2.00;;;;;23.50;38.10;101281.78;5100895;27;45353;-67
2022/08/30 03:00:37;;;;;;;;;5.67;4.00;;;;;23.55;38.42;101283.38;5096982;27;45527;-74
2022/08/30 03:03:03;;;;;;;;;6.00;4.00;;;;;23.01;38.08;101211.72;5097603;27;46662;-68
2022/08/30 03:05:32;;;;;;;;;4.00;2.00;;;;;23.72;38.54;101328.97;5100778;27;45495;-68
2022/08/30 03:07:59;;;;;;;;;5.67;4.00;;;;;23.72;38.91;101326.28;5097605;27;45451;-67
2022/08/30 03:10:27;;;;;;;;;3.33;3.33;;;;;23.66;40.17;101315.88;5097858;27;45455;-71
2022/08/30 03:12:54;;;;;;;;;5.33;3.67;;;;;23.25;40.66;101263.25;5095125;27;47273;-68
2022/08/30 03:15:24;;;;;;;;;4.00;3.00;;;;;23.44;42.51;101303.44;5097065;27;45362;-75
2022/08/30 03:17:51;;;;;;;;;8.67;5.00;;;;;23.45;42.15;101328.34;5099467;27;45425;-68
2022/08/30 03:20:18;;;;;;;;;5.00;4.00;;;;;22.96;45.98;101341.88;5096877;27;45526;-77
2022/08/30 03:22:44;;;;;;;;;5.33;4.67;;;;;22.68;46.93;101350.13;5096952;27;45807;-78
2022/08/30 03:25:09;;;;;;;;;4.33;4.33;;;;;22.78;47.46;101356.88;5096255;27;46032;-78
2022/08/30 03:27:36;;;;;;;;;5.33;4.00;;;;;22.58;45.63;101282.88;5096290;27;45533;-69
2022/08/30 03:30:03;;;;;;;;;7.00;3.00;;;;;22.70;45.30;101280.66;5096584;27;45492;-71
2022/08/30 03:32:29;;;;;;;;;3.33;3.00;;;;;22.89;45.39;101308.34;5095719;27;46063;-69
2022/08/30 03:34:54;;;;;;;;;4.67;3.00;;;;;22.12;45.84;101166.38;5094101;27;45521;-68
2022/08/30 03:37:20;;;;;;;;;5.00;3.67;;;;;22.54;46.84;101232.31;5096210;27;45411;-67
2022/08/30 03:39:46;;;;;;;;;6.00;5.67;;;;;22.73;47.70;101262.72;5097472;27;45711;-68
2022/08/30 03:42:11;;;;;;;;;7.67;6.00;;;;;21.86;49.80;101175.38;5099120;27;45491;-67
2022/08/30 03:44:37;;;;;;;;;5.33;4.33;;;;;21.96;51.89;101262.09;5097735;27;45392;-68
2022/08/30 03:47:04;;;;;;;;;6.67;6.00;;;;;21.66;51.18;101258.75;5095516;27;45387;-70
2022/08/30 03:49:30;;;;;;;;;10.67;7.00;;;;;21.17;51.73;101187.59;5095656;27;45988;-70
2022/08/30 03:51:56;;;;;;;;;6.00;5.33;;;;;21.13;53.91;101230.38;5094430;27;47571;-67
2022/08/30 03:54:22;;;;;;;;;4.33;4.33;;;;;20.66;53.80;101175.09;5095405;27;45645;-68
2022/08/30 03:56:48;;;;;;;;;6.00;4.67;;;;;21.10;54.49;101271.28;5092438;27;45321;-69
2022/08/30 03:59:14;;;;;;;;;7.33;5.33;;;;;21.07;52.41;101273.16;5095062;27;45648;-68
2022/08/30 04:01:40;;;;;;;;;5.67;5.67;;;;;20.52;54.07;101214.56;5094936;27;45657;-67
2022/08/30 04:04:06;;;;;;;;;5.00;5.00;;;;;20.65;53.72;101247.03;5095457;27;45415;-67
2022/08/30 04:06:32;;;;;;;;;6.67;4.00;;;;;20.69;54.63;101246.91;5099462;27;45600;-68
2022/08/30 04:08:58;;;;;;;;;5.67;5.00;;;;;20.77;54.05;101241.31;5098425;27;45393;-68
2022/08/30 04:11:25;;;;;;;;;11.00;6.33;;;;;20.39;55.50;101187.50;5090810;27;46227;-68
2022/08/30 04:13:52;;;;;;;;;6.33;5.67;;;;;20.57;55.93;101223.31;5086546;27;45423;-68
2022/08/30 04:16:21;;;;;;;;;6.00;4.67;;;;;19.97;55.57;101126.75;5096038;27;45741;-67
2022/08/30 04:18:47;;;;;;;;;6.33;2.67;;;;;20.18;56.31;101162.44;5095171;27;45584;-67
2022/08/30 04:21:14;;;;;;;;;7.00;6.67;;;;;20.53;55.70;101240.28;5094481;27;46282;-68
2022/08/30 04:23:40;;;;;;;;;6.00;6.00;;;;;20.32;55.30;101226.72;5097785;27;45649;-71
2022/08/30 04:26:07;;;;;;;;;4.00;4.00;;;;;20.49;55.54;101246.59;5095831;27;45691;-72
2022/08/30 04:28:34;;;;;;;;;3.33;3.33;;;;;19.90;54.20;101136.69;5095676;27;45484;-75
2022/08/30 04:31:02;;;;;;;;;4.33;3.00;;;;;20.48;53.15;101192.53;5095472;27;45496;-79
2022/08/30 04:33:27;;;;;;;;;5.00;4.00;;;;;20.89;52.56;101206.31;5094486;27;45405;-79
2022/08/30 04:35:53;;;;;;;;;6.33;5.00;;;;;21.14;52.35;101227.66;5087187;27;45695;-78
2022/08/30 04:38:18;;;;;;;;;5.00;5.00;;;;;21.31;51.41;101237.72;5092598;27;45296;-69
2022/08/30 04:40:47;;;;;;;;;3.00;3.00;;;;;21.38;50.87;101236.59;5097938;27;45765;-79
2022/08/30 04:43:16;;;;;;;;;2.33;2.33;;;;;21.44;50.48;101235.53;5093701;27;45392;-68
2022/08/30 04:45:41;;;;;;;;;3.00;3.00;;;;;21.56;52.18;101258.22;5098378;27;45469;-70
2022/08/30 04:48:07;;;;;;;;;3.00;3.00;;;;;21.53;52.53;101248.53;5098422;27;45522;-67
2022/08/30 04:50:33;;;;;;;;;3.00;3.00;;;;;21.29;51.89;101196.09;5094117;27;45483;-69
2022/08/30 04:52:59;;;;;;;;;2.33;2.33;;;;;21.70;50.08;101249.72;5094631;27;45620;-69
2022/08/30 05:26:43;;;;;;;;;5.00;5.00;;;;;19.78;56.25;101242.50;5048174;28;45380;-65
2022/08/30 05:29:09;;;;;;;;;8.00;6.67;;;;;20.10;55.85;101260.22;5028773;28;45608;-65
2022/08/30 05:31:36;;;;;;;;;6.00;6.00;;;;;20.15;54.52;101220.19;5030030;28;45449;-64
2022/08/30 05:34:02;;;;;;;;;4.67;4.67;;;;;20.74;54.10;101284.03;5046172;28;45542;-66
2022/08/30 05:36:30;;;;;;;;;4.33;4.00;;;;;20.91;53.32;101265.69;5033841;28;46213;-65
2022/08/30 05:38:56;;;;;;;;;8.00;4.67;;;;;21.28;52.83;101287.56;5033708;28;45473;-64
2022/08/30 05:41:23;;;;;;;;;6.00;4.67;;;;;21.51;51.83;101289.50;5033932;28;45361;-65
2022/08/30 05:43:55;;;;;;;;;5.00;5.00;;;;;21.51;50.93;101266.38;5034050;28;45614;-66
2022/08/30 05:46:21;;;;;;;;;4.33;4.33;;;;;21.30;51.28;101219.97;5033710;28;45648;-64
2022/08/30 05:48:50;;;;;;;;;9.00;4.00;;;;;21.80;50.83;101302.66;5032556;28;45509;-64
2022/08/30 05:51:22;;;;;;;;;7.00;4.00;;;;;21.29;49.14;101198.75;5027714;28;45487;-64
2022/08/30 05:53:52;;;;;;;;;4.33;4.33;;;;;21.73;48.82;101261.13;5025245;28;45465;-65
2022/08/30 05:56:21;;;;;;;;;6.33;6.00;;;;;21.95;48.16;101295.03;5029016;28;46431;-67
2022/08/30 05:58:48;;;;;;;;;5.00;5.00;;;;;21.80;48.06;101259.97;5028021;28;45529;-64
2022/08/30 06:01:23;;;;;;;;;6.33;5.67;;;;;21.89;47.74;101271.25;5029433;28;45702;-64
2022/08/30 06:03:50;;;;;;;;;7.67;4.00;;;;;22.11;47.89;101290.84;5029771;28;45762;-66
2022/08/30 06:06:15;;;;;;;;;8.33;4.67;;;;;21.94;47.16;101262.16;5029455;28;46423;-64
2022/08/30 06:08:48;;;;;;;;;6.00;6.00;;;;;22.07;47.03;101283.91;5029619;28;45358;-65
2022/08/30 06:11:18;;;;;;;;;7.00;4.67;;;;;21.92;46.90;101247.13;5029969;28;45399;-63
2022/08/30 06:13:44;;;;;;;;;5.67;5.00;;;;;22.25;46.48;101294.84;5022593;28;45441;-65
2022/08/30 06:16:15;;;;;;;;;4.33;4.00;;;;;22.11;46.59;101250.84;5031728;28;45422;-65
2022/08/30 06:18:40;;;;;;;;;3.33;3.00;;;;;22.38;46.30;101270.31;5029220;28;45546;-64
2022/08/30 06:21:06;;;;;;;;;4.00;4.00;;;;;22.56;45.97;101286.53;5031915;28;45465;-64
2022/08/30 06:23:33;;;;;;;;;9.33;5.33;;;;;22.57;45.77;101281.13;5025237;28;45565;-64
2022/08/30 06:26:06;;;;;;;;;6.00;4.67;;;;;22.62;45.40;101280.97;5019252;28;48125;-64
2022/08/30 06:28:32;;;;;;;;;6.67;5.33;;;;;22.35;45.41;101240.19;5031553;28;45423;-66
2022/08/30 06:30:58;;;;;;;;;4.33;4.33;;;;;22.65;45.17;101296.84;5029246;28;45343;-65
2022/08/30 06:33:24;;;;;;;;;6.67;4.33;;;;;22.67;45.00;101292.31;5031541;28;45562;-64
2022/08/30 06:35:52;;;;;;;;;6.00;6.00;;;;;22.61;44.73;101272.09;5031183;28;47600;-65
2022/08/30 06:38:18;;;;;;;;;6.33;3.33;;;;;22.44;45.01;101242.50;5015184;28;45497;-64
2022/08/30 06:40:44;;;;;;;;;5.00;3.33;;;;;22.73;44.78;101261.81;5010901;28;45364;-65
2022/08/30 06:43:09;;;;;;;;;7.00;4.00;;;;;22.89;44.36;101270.94;5006999;28;45695;-63
2022/08/30 06:45:55;;;;;;;;;5.67;4.00;;;;;23.17;44.46;101293.91;5008252;28;46596;-65
2022/08/30 06:48:30;;;;;;;;;4.67;4.67;;;;;23.19;44.03;101278.69;5018071;28;45444;-64
2022/08/30 06:50:58;;;;;;;;;4.67;4.67;;;;;23.31;43.73;101279.97;5015761;28;45683;-64
2022/08/30 06:53:24;;;;;;;;;4.00;3.33;;;;;23.04;43.73;101230.28;5007249;28;45892;-66
2022/08/30 06:55:57;;;;;;;;;5.00;4.00;;;;;23.47;43.38;101297.09;5002654;28;45506;-64
2022/08/30 06:58:23;;;;;;;;;6.00;4.00;;;;;23.27;43.27;101261.38;5013665;28;45462;-64
2022/08/30 07:00:49;;;;;;;;;4.67;4.00;;;;;23.54;43.08;101301.22;5018147;28;45353;-74
2022/08/30 07:03:15;;;;;;;;;6.33;5.00;;;;;23.58;42.90;101300.13;5015837;28;45401;-73
2022/08/30 07:05:41;;;;;;;;;8.33;4.33;;;;;23.50;43.25;101287.13;5015653;28;46700;-68
2022/08/30 07:08:06;;;;;;;;;4.00;4.00;;;;;23.43;42.93;101285.63;5018040;28;45546;-64
2022/08/30 07:10:32;;;;;;;;;5.33;4.33;;;;;23.34;43.37;101258.44;5012746;28;45414;-64
2022/08/30 07:12:58;;;;;;;;;7.00;6.33;;;;;23.66;44.27;101306.03;4998648;28;45620;-65
2022/08/30 07:15:24;;;;;;;;;7.33;6.00;;;;;23.79;43.41;101321.56;5009130;28;48161;-66
2022/08/30 07:20:37;;;;;;;;;5.33;5.33;;;;;24.05;42.63;101313.25;4995710;28;45358;-75
2022/08/30 07:23:03;;;;;;;;;5.00;5.00;;;;;24.05;41.84;101304.38;5007754;28;45525;-68
2022/08/30 07:25:40;;;;;;;;;4.33;4.33;;;;;24.10;42.24;101305.88;5011933;28;46768;-71
2022/08/30 07:28:13;;;;;;;;;4.00;4.00;;;;;23.90;41.89;101272.00;5018494;28;45594;-65
2022/08/30 07:30:40;;;;;;;;;6.00;6.00;;;;;24.05;41.61;101307.91;5015239;28;45611;-72
2022/08/30 07:33:06;;;;;;;;;6.33;6.33;;;;;24.18;42.13;101310.91;5019512;28;46104;-69
2022/08/30 07:35:32;;;;;;;;;7.00;7.00;;;;;24.20;41.78;101325.06;5016976;28;46701;-75
2022/08/30 07:37:58;;;;;;;;;4.33;4.33;;;;;24.21;41.60;101315.25;5014479;28;45493;-74
2022/08/30 07:40:24;;;;;;;;;7.00;7.00;;;;;24.15;41.87;101303.00;5017475;28;45308;-68
2022/08/30 07:42:50;;;;;;;;;10.33;9.00;;;;;23.74;43.22;101254.91;5015215;28;45388;-73
2022/08/30 07:45:17;;;;;;;;;8.33;5.00;;;;;24.09;42.83;101317.53;5014735;28;45916;-75
2022/08/30 07:47:44;;;;;;;;;8.33;7.00;;;;;24.19;42.67;101322.47;5014965;28;45886;-74
2022/08/30 07:50:10;;;;;;;;;7.33;4.00;;;;;23.86;42.50;101248.16;5014135;28;45443;-67
2022/08/30 07:52:36;;;;;;;;;8.00;5.00;;;;;24.32;42.13;101313.81;5014872;28;45996;-73
2022/08/30 07:55:03;;;;;;;;;8.00;5.00;;;;;24.25;41.81;101298.97;5023425;28;45520;-80
2022/08/30 07:58:03;;;;;;;;;6.67;6.00;;;;;24.47;41.45;101322.09;4995197;28;45925;-77
2022/08/30 08:00:51;;;;;;;;;10.33;6.67;;;;;24.59;41.28;101312.63;5018348;28;44861;-74
2022/08/30 08:03:31;;;;;;;;;6.67;6.67;;;;;24.36;41.95;101306.50;5034790;28;45491;-76
2022/08/30 08:11:25;;;;;;;;;7.67;6.33;;;;;24.54;42.04;101332.44;5295606;22;46996;-69
2022/08/30 08:13:53;;;;;;;;;11.33;9.33;;;;;24.32;42.43;101332.56;4955034;28;45551;-64
2022/08/30 08:16:20;;;;;;;;;9.00;8.00;;;;;24.38;42.50;101326.03;4953780;28;45477;-67
2022/08/30 08:18:47;;;;;;;;;7.00;7.00;;;;;24.45;41.72;101327.50;4952627;28;45493;-66
2022/08/30 08:21:12;;;;;;;;;12.33;10.00;;;;;24.31;42.24;101327.25;4954638;28;45627;-64
2022/08/30 08:23:38;;;;;;;;;7.67;7.33;;;;;24.44;42.00;101330.22;4954655;28;45791;-66
2022/08/30 08:26:04;;;;;;;;;9.00;8.33;;;;;24.55;41.38;101330.63;4953147;28;48012;-67
2022/08/30 08:28:31;;;;;;;;;8.67;8.67;;;;;24.63;41.46;101325.81;4953913;28;45649;-67
2022/08/30 08:31:12;;;;;;;;;7.00;7.00;;;;;24.73;41.44;101339.63;4953006;28;46036;-64
2022/08/30 08:33:39;;;;;;;;;7.33;7.00;;;;;24.74;41.37;101344.88;4948006;28;45355;-66
2022/08/30 08:36:05;;;;;;;;;7.67;4.67;;;;;24.83;41.45;101345.41;4947785;28;46215;-66
2022/08/30 08:38:31;;;;;;;;;7.67;6.67;;;;;25.04;40.90;101351.53;4959490;28;45548;-66
2022/08/30 08:41:11;;;;;;;;;6.33;6.00;;;;;25.19;39.91;101356.16;4955859;28;45473;-66
2022/08/30 08:43:39;;;;;;;;;4.67;4.00;;;;;25.19;40.56;101350.81;4954855;28;45294;-66
2022/08/30 08:46:35;;;;;;;;;5.67;5.67;;;;;25.24;40.42;101348.75;4954582;28;45770;-70
2022/08/30 08:49:07;;;;;;;;;7.33;7.00;;;;;25.38;40.15;101354.31;4946994;28;45467;-70
2022/08/30 08:54:41;;;;;;;;;6.00;6.00;;;;;25.72;39.58;101357.06;4954843;28;45343;-68
2022/08/30 08:57:09;;;;;;;;;7.33;5.00;;;;;25.87;39.20;101361.69;4953902;28;45513;-66
2022/08/30 08:59:35;;;;;;;;;6.00;6.00;;;;;25.94;39.12;101363.09;4953125;28;45402;-70
2022/08/30 09:02:35;;;;;;;;;7.67;7.00;;;;;25.90;39.31;101356.16;4953529;28;45301;-68
2022/08/30 09:05:01;;;;;;;;;7.00;7.00;;;;;26.04;38.91;101370.69;4950128;28;45462;-64
2022/08/30 09:07:42;;;;;;;;;7.33;6.00;;;;;26.11;38.85;101370.25;4953695;28;45562;-65
2022/08/30 09:10:09;;;;;;;;;6.00;4.33;;;;;26.26;38.56;101373.09;4953417;28;45458;-67
2022/08/30 09:12:35;;;;;;;;;5.67;5.33;;;;;26.31;38.59;101366.50;4954554;28;45332;-68
2022/08/30 09:15:25;;;;;;;;;10.67;7.67;;;;;26.31;38.70;101381.75;4953651;28;45724;-66
2022/08/30 09:18:01;;;;;;;;;10.67;8.67;;;;;26.27;38.61;101373.00;4952732;28;45493;-65
2022/08/30 09:20:35;;;;;;;;;6.00;6.00;;;;;26.11;38.56;101369.41;4952687;28;45651;-65
2022/08/30 09:23:26;;;;;;;;;12.00;10.00;;;;;26.06;38.75;101360.72;4952484;28;45671;-66
2022/08/30 09:26:02;;;;;;;;;11.00;10.00;;;;;26.01;38.96;101371.72;4950684;28;45498;-65
2022/08/30 09:28:42;;;;;;;;;7.00;7.00;;;;;25.95;39.49;101372.88;4953167;28;46246;-63
2022/08/30 09:31:24;;;;;;;;;7.33;7.00;;;;;26.10;38.77;101379.28;4956755;28;45269;-64
2022/08/30 09:34:04;;;;;;;;;7.33;7.33;;;;;26.17;38.61;101371.75;4956680;28;45431;-65
2022/08/30 09:36:45;;;;;;;;;10.33;10.33;;;;;26.20;39.50;101376.97;4956586;28;45546;-66
2022/08/30 09:39:18;;;;;;;;;10.00;9.00;;;;;26.19;39.42;101377.91;4957968;28;46450;-66
2022/08/30 09:41:49;;;;;;;;;7.00;6.00;;;;;26.38;39.55;101383.16;4953410;28;45510;-64
2022/08/30 09:44:26;;;;;;;;;7.67;7.33;;;;;26.58;39.23;101380.28;4953316;28;45566;-68
2022/08/30 09:46:56;;;;;;;;;7.33;7.00;;;;;26.67;37.98;101369.97;4953679;28;45472;-65
2022/08/30 09:49:32;;;;;;;;;8.00;6.67;;;;;26.83;38.37;101379.78;4953140;28;45484;-65
2022/08/30 09:52:35;;;;;;;;;14.00;12.00;;;;;26.80;38.25;101379.09;4953997;28;45478;-64
2022/08/30 09:55:16;;;;;;;;;11.67;11.33;;;;;26.64;38.09;101373.69;4958000;28;45489;-67
2022/08/30 09:58:03;;;;;;;;;9.67;8.00;;;;;26.68;38.36;101383.34;4953350;28;45831;-67
2022/08/30 10:00:34;;;;;;;;;8.00;8.00;;;;;26.75;37.88;101375.81;4952823;28;45725;-68
2022/08/30 10:03:40;;;;;;;;;10.33;7.33;;;;;26.68;38.11;101377.09;4952627;28;45427;-66
2022/08/30 10:06:14;;;;;;;;;9.33;9.33;;;;;26.61;38.62;101381.94;4952878;28;45431;-67
2022/08/30 10:09:11;;;;;;;;;11.67;11.67;;;;;26.60;38.37;101382.88;4953421;28;45538;-66
2022/08/30 10:12:30;;;;;;;;;13.67;12.67;;;;;26.56;37.74;101382.19;4940391;28;45540;-66
2022/08/30 10:15:13;;;;;;;;;9.67;8.67;;;;;26.61;38.21;101385.50;4933937;28;45434;-64
2022/08/30 10:17:51;;;;;;;;;7.67;6.67;;;;;26.61;38.22;101373.88;4933829;28;45686;-66
2022/08/30 10:20:55;;;;;;;;;9.00;6.33;;;;;26.74;38.72;101380.31;4959043;28;45782;-65
2022/08/30 10:23:36;;;;;;;;;13.00;11.33;;;;;26.82;37.87;101366.44;4956391;28;46430;-67
2022/08/30 10:26:24;;;;;;;;;15.33;12.33;;;;;26.73;38.29;101378.56;4955316;28;46265;-66
2022/08/30 10:28:58;;;;;;;;;12.67;12.00;;;;;26.57;38.47;101375.00;4934148;28;45541;-66
2022/08/30 10:31:31;;;;;;;;;12.00;8.67;;;;;26.56;38.92;101379.50;4950730;28;45447;-67
2022/08/30 10:34:06;;;;;;;;;9.00;9.00;;;;;26.60;38.08;101372.13;4946469;28;46322;-65
2022/08/30 10:36:41;;;;;;;;;10.67;8.33;;;;;26.67;38.27;101372.66;4956581;28;45897;-66
2022/08/30 10:39:12;;;;;;;;;10.67;10.33;;;;;26.66;38.65;101374.50;4958523;28;46529;-65
2022/08/30 10:41:43;;;;;;;;;13.67;13.33;;;;;26.73;38.38;101377.72;4957249;28;45791;-66
2022/08/30 10:44:21;;;;;;;;;9.33;8.67;;;;;26.69;38.57;101378.81;4956573;28;45566;-65
2022/08/30 10:46:53;;;;;;;;;7.00;6.67;;;;;26.73;38.11;101383.94;4956046;28;45515;-64
2022/08/30 10:49:22;;;;;;;;;8.67;8.67;;;;;26.56;39.73;101376.81;4956206;28;45792;-65
2022/08/30 10:52:12;;;;;;;;;11.33;11.33;;;;;26.51;39.59;101376.19;4956588;28;45526;-66
2022/08/30 10:54:46;;;;;;;;;12.00;10.00;;;;;26.52;39.14;101385.09;4960062;28;45439;-67
2022/08/30 10:57:12;;;;;;;;;8.67;8.67;;;;;26.59;38.80;101391.91;4958796;28;45515;-68
2022/08/30 10:59:45;;;;;;;;;11.00;11.00;;;;;26.63;39.63;101385.41;4958211;28;45477;-65
2022/08/30 11:02:35;;;;;;;;;15.67;13.67;;;;;26.59;39.07;101386.53;4956155;28;45392;-66
2022/08/30 11:05:22;;;;;;;;;14.00;12.00;;;;;26.41;38.42;101374.91;4974465;28;45363;-66
2022/08/30 11:08:11;;;;;;;;;12.33;11.00;;;;;26.37;39.48;101384.13;4967444;28;45491;-66
2022/08/30 11:11:01;;;;;;;;;12.67;10.67;;;;;26.45;39.51;101377.34;4954473;28;45721;-65
2022/08/30 11:13:30;;;;;;;;;13.67;13.67;;;;;26.57;38.54;101375.84;4959091;28;45278;-65
2022/08/30 11:16:06;;;;;;;;;10.33;8.67;;;;;26.69;38.67;101374.31;4955873;28;45488;-66
2022/08/30 11:18:41;;;;;;;;;14.67;9.33;;;;;26.74;38.18;101374.94;4955597;28;45593;-67
2022/08/30 11:21:31;;;;;;;;;10.00;8.33;;;;;26.80;39.48;101371.91;4955221;28;45502;-65
2022/08/30 11:24:11;;;;;;;;;12.00;11.33;;;;;26.96;39.09;101374.59;4955339;28;45387;-67
2022/08/30 11:26:47;;;;;;;;;15.33;13.33;;;;;26.98;39.21;101375.38;4953987;28;46770;-65
2022/08/30 11:29:41;;;;;;;;;13.00;10.67;;;;;26.99;38.99;101369.03;4954746;28;45561;-66
2022/08/30 11:32:12;;;;;;;;;11.00;11.00;;;;;27.10;39.24;101373.81;4954326;28;45515;-65
2022/08/30 11:34:44;;;;;;;;;8.67;8.67;;;;;27.21;38.84;101373.22;4955742;28;45408;-67
2022/08/30 11:37:35;;;;;;;;;10.75;9.00;;;;;27.35;38.62;101367.91;4954816;28;45979;-65
2022/08/30 11:40:27;;;;;;;;;12.67;11.33;;;;;27.56;37.49;101375.69;4958888;28;45454;-65
2022/08/30 11:42:54;;;;;;;;;13.00;11.67;;;;;27.78;37.45;101362.66;4948689;28;45957;-67
2022/08/30 11:45:23;;;;;;;;;12.67;11.67;;;;;27.94;37.30;101369.84;4955075;28;45832;-67
2022/08/30 11:47:52;;;;;;;;;11.67;10.33;;;;;28.11;37.12;101362.44;4954324;28;45460;-66
2022/08/30 11:50:51;;;;;;;;;12.00;8.00;;;;;28.36;36.31;101378.91;4963882;28;45460;-65
2022/08/30 11:53:22;;;;;;;;;10.67;9.33;;;;;28.51;36.52;101381.53;4944787;28;45360;-64
2022/08/30 11:55:54;;;;;;;;;10.00;10.00;;;;;28.61;36.23;101376.44;4955546;28;45347;-65
2022/08/30 11:58:48;;;;;;;;;7.50;7.50;;;;;28.70;36.02;101372.28;4955299;28;45472;-66
2022/08/30 12:01:19;;;;;;;;;12.67;10.33;;;;;28.58;35.79;101368.53;4954588;28;45304;-65
2022/08/30 12:04:07;;;;;;;;;7.25;7.25;;;;;28.60;35.95;101372.00;4944430;28;45420;-65
2022/08/30 12:06:38;;;;;;;;;11.00;9.67;;;;;28.70;36.00;101370.44;4953913;28;45428;-65
2022/08/30 12:09:09;;;;;;;;;10.33;10.33;;;;;28.65;36.44;101377.13;4955888;28;46110;-63
2022/08/30 12:11:35;;;;;;;;;8.00;8.00;;;;;28.67;35.96;101370.66;4955332;28;45656;-65
2022/08/30 12:14:06;;;;;;;;;9.50;9.50;;;;;28.65;36.20;101371.72;4956632;28;45749;-66
2022/08/30 12:18:26;;;;;;;;;11.00;9.00;;;;;28.71;36.14;101382.09;4955334;28;46023;-65
2022/08/30 12:19:30;;;;;;;;;15.00;12.67;;;;;28.60;35.92;101374.72;4945856;28;45347;-64
2022/08/30 12:22:04;;;;;;;;;12.33;11.00;;;;;28.63;36.22;101371.81;4953248;28;45344;-64
2022/08/30 12:24:42;;;;;;;;;12.33;11.33;;;;;28.75;36.10;101373.72;4953489;28;45349;-66